Time;durP1;ratioP1;P1;durP2;ratioP2;P2;SDS_P1;SDS_P2;PMS_P1;PMS_P2;Temp;Humidity;BMP_temperature;BMP_pressure;BME280_temperature;BME280_humidity;BME280_pressure;Samples;Min_cycle;Max_cycle;Signal;HPM_P1;HPM_P2
2022/03/14 00:00:38;;;;;;;18.35;11.88;;;9.80;56.90;;;;;;4924043;29;20055;-68
2022/03/14 00:03:05;;;;;;;17.23;11.48;;;9.80;57.20;;;;;;4936971;28;20077;-69
2022/03/14 00:05:32;;;;;;;21.98;12.82;;;9.80;57.30;;;;;;4949348;28;20073;-69
2022/03/14 00:08:01;;;;;;;21.60;13.07;;;9.80;57.40;;;;;;4939984;28;20105;-66
2022/03/14 00:10:28;;;;;;;18.95;12.15;;;9.80;57.60;;;;;;4937590;28;20047;-70
2022/03/14 00:12:57;;;;;;;18.15;12.15;;;9.80;57.70;;;;;;4921146;28;20062;-69
2022/03/14 00:15:27;;;;;;;19.23;12.20;;;9.80;57.90;;;;;;4929004;28;20170;-68
2022/03/14 00:17:53;;;;;;;14.95;11.15;;;9.70;58.10;;;;;;4940365;28;20043;-67
2022/03/14 00:20:19;;;;;;;17.10;12.23;;;9.70;58.30;;;;;;4939348;28;20057;-68
2022/03/14 00:22:46;;;;;;;18.52;12.32;;;9.70;58.50;;;;;;4938989;28;20083;-66
2022/03/14 00:25:12;;;;;;;26.13;12.23;;;9.70;58.70;;;;;;4938387;28;20051;-69
2022/03/14 00:27:38;;;;;;;24.25;13.32;;;9.70;58.80;;;;;;4935588;28;20061;-69
2022/03/14 00:30:06;;;;;;;18.55;11.73;;;9.70;59.10;;;;;;4916811;28;20125;-66
2022/03/14 00:32:32;;;;;;;19.17;11.60;;;9.60;59.30;;;;;;4936730;28;20280;-69
2022/03/14 00:34:57;;;;;;;19.08;12.10;;;9.60;59.50;;;;;;4956003;28;20055;-67
2022/03/14 00:37:24;;;;;;;15.60;11.43;;;9.60;59.80;;;;;;4936802;28;20054;-69
2022/03/14 00:39:50;;;;;;;21.67;12.85;;;9.60;60.20;;;;;;4939540;28;20611;-67
2022/03/14 00:42:20;;;;;;;17.55;11.88;;;9.50;60.50;;;;;;4936799;28;20518;-69
2022/03/14 00:44:46;;;;;;;16.73;12.02;;;9.50;60.80;;;;;;4929303;28;20138;-69
2022/03/14 00:47:12;;;;;;;17.63;12.30;;;9.50;61.00;;;;;;4920615;28;20057;-65
2022/03/14 00:49:38;;;;;;;19.67;12.13;;;9.50;61.20;;;;;;4926952;28;20078;-67
2022/03/14 00:52:04;;;;;;;17.85;12.45;;;9.50;61.50;;;;;;4929816;28;20197;-68
2022/03/14 00:54:30;;;;;;;17.92;12.05;;;9.50;61.90;;;;;;4933727;28;20087;-67
2022/03/14 00:56:55;;;;;;;17.15;11.93;;;9.50;62.10;;;;;;4953098;28;20487;-70
2022/03/14 00:59:22;;;;;;;17.77;12.70;;;9.60;62.60;;;;;;4933516;28;20417;-69
2022/03/14 01:01:48;;;;;;;18.85;12.43;;;9.60;62.80;;;;;;4938477;28;20723;-69
2022/03/14 01:04:14;;;;;;;20.98;11.90;;;9.50;63.10;;;;;;4942247;28;20065;-69
2022/03/14 01:06:40;;;;;;;18.48;12.55;;;9.60;63.60;;;;;;4914506;28;20047;-69
2022/03/14 01:09:07;;;;;;;17.42;12.27;;;9.60;63.90;;;;;;4932667;28;20069;-66
2022/03/14 01:11:33;;;;;;;20.40;12.68;;;9.60;64.00;;;;;;4940417;28;20398;-69
2022/03/14 01:13:59;;;;;;;17.88;12.57;;;9.60;64.40;;;;;;4957490;28;20062;-69
2022/03/14 01:16:24;;;;;;;17.08;12.18;;;9.60;64.70;;;;;;4924729;28;20117;-69
2022/03/14 01:18:50;;;;;;;18.38;11.93;;;9.60;64.90;;;;;;4956918;28;20594;-65
2022/03/14 01:21:16;;;;;;;17.67;12.30;;;9.60;65.10;;;;;;4939103;28;20039;-67
2022/03/14 01:23:42;;;;;;;20.40;12.20;;;9.60;65.30;;;;;;4941108;28;20142;-69
2022/03/14 01:26:09;;;;;;;18.00;12.27;;;9.60;65.70;;;;;;4936626;28;20047;-65
2022/03/14 01:28:35;;;;;;;17.40;12.68;;;9.60;66.00;;;;;;4941946;28;20594;-69
2022/03/14 01:31:00;;;;;;;17.35;12.52;;;9.60;66.40;;;;;;4921525;28;20043;-65
2022/03/14 01:33:26;;;;;;;18.00;12.65;;;9.50;66.50;;;;;;4941287;28;20201;-68
2022/03/14 01:35:52;;;;;;;16.52;12.30;;;9.50;66.80;;;;;;4926867;29;20043;-70
2022/03/14 01:38:18;;;;;;;17.90;12.60;;;9.60;67.10;;;;;;4940208;28;20051;-68
2022/03/14 01:40:44;;;;;;;17.13;12.20;;;9.60;67.60;;;;;;4924688;28;20070;-67
2022/03/14 01:43:09;;;;;;;17.33;12.68;;;9.60;67.70;;;;;;4923570;28;20051;-68
2022/03/14 01:45:35;;;;;;;19.20;12.68;;;9.60;68.00;;;;;;4941851;28;20059;-68
2022/03/14 01:48:02;;;;;;;16.80;12.48;;;9.60;68.40;;;;;;4940298;28;20553;-69
2022/03/14 01:50:27;;;;;;;16.88;12.18;;;9.60;68.60;;;;;;4931588;28;20129;-69
2022/03/14 01:52:53;;;;;;;17.23;12.70;;;9.60;68.90;;;;;;4938003;28;20097;-64
2022/03/14 01:55:20;;;;;;;16.05;11.85;;;9.60;69.10;;;;;;4930217;28;20057;-69
2022/03/14 01:57:46;;;;;;;18.60;12.68;;;9.60;69.60;;;;;;4923263;28;20465;-68
2022/03/14 02:00:13;;;;;;;15.50;12.07;;;9.60;69.80;;;;;;4932046;28;20450;-69
2022/03/14 02:02:39;;;;;;;15.63;12.10;;;9.60;70.20;;;;;;4938325;28;20069;-69
2022/03/14 02:05:06;;;;;;;17.23;11.77;;;9.60;70.60;;;;;;4942542;28;20059;-68
2022/03/14 02:07:32;;;;;;;18.17;12.20;;;9.60;70.80;;;;;;4940983;28;20051;-68
2022/03/14 02:09:58;;;;;;;17.83;13.02;;;9.60;71.00;;;;;;4939305;28;20043;-66
2022/03/14 02:12:24;;;;;;;15.52;11.35;;;9.50;71.20;;;;;;4925777;29;20506;-68
2022/03/14 02:14:50;;;;;;;18.23;12.05;;;9.50;71.40;;;;;;4939845;28;20180;-66
2022/03/14 02:17:20;;;;;;;17.02;11.57;;;9.50;71.50;;;;;;4939188;28;20210;-70
2022/03/14 02:19:46;;;;;;;14.88;11.25;;;9.50;72.00;;;;;;4931325;28;20058;-68
2022/03/14 02:22:13;;;;;;;15.00;11.27;;;9.50;72.10;;;;;;4937917;28;20048;-68
2022/03/14 02:24:44;;;;;;;16.70;11.98;;;9.50;72.40;;;;;;4940002;28;20049;-69
2022/03/14 02:27:11;;;;;;;15.02;11.02;;;9.50;72.80;;;;;;4924973;28;20480;-68
2022/03/14 02:29:38;;;;;;;14.77;11.05;;;9.50;72.80;;;;;;4939832;28;20057;-69
2022/03/14 02:32:05;;;;;;;16.98;11.35;;;9.50;73.10;;;;;;4937209;28;20089;-68
2022/03/14 02:34:32;;;;;;;16.15;11.98;;;9.50;73.40;;;;;;4926523;28;20051;-69
2022/03/14 02:36:58;;;;;;;15.80;11.65;;;9.50;73.70;;;;;;4929040;28;20540;-64
2022/03/14 02:39:24;;;;;;;15.27;11.18;;;9.50;73.90;;;;;;4957192;28;20048;-68
2022/03/14 02:41:50;;;;;;;14.63;11.05;;;9.50;74.10;;;;;;4935331;28;20060;-69
2022/03/14 02:44:16;;;;;;;15.45;10.85;;;9.50;74.90;;;;;;4908270;28;20066;-68
2022/03/14 02:46:42;;;;;;;14.40;10.98;;;9.50;74.60;;;;;;4922592;29;20062;-69
2022/03/14 02:49:09;;;;;;;15.82;11.38;;;9.50;74.90;;;;;;4940139;28;20090;-69
2022/03/14 02:51:40;;;;;;;15.32;11.57;;;9.50;75.50;;;;;;4905055;28;20054;-67
2022/03/14 02:54:10;;;;;;;13.85;10.75;;;9.60;75.80;;;;;;4934705;28;20050;-69
2022/03/14 02:56:37;;;;;;;15.20;10.73;;;9.60;76.10;;;;;;4937663;28;20170;-67
2022/03/14 02:59:06;;;;;;;15.50;11.55;;;9.50;76.20;;;;;;4932381;28;20450;-69
2022/03/14 03:01:35;;;;;;;14.43;11.13;;;9.50;76.50;;;;;;4936337;28;20047;-69
2022/03/14 03:04:01;;;;;;;17.92;11.25;;;9.50;77.00;;;;;;4941221;28;20059;-69
2022/03/14 03:06:27;;;;;;;16.35;10.77;;;9.50;77.20;;;;;;4938331;28;20575;-68
2022/03/14 03:08:54;;;;;;;14.07;10.85;;;9.50;77.70;;;;;;4940814;28;20051;-65
2022/03/14 03:11:23;;;;;;;14.75;10.85;;;9.50;78.20;;;;;;4935942;28;20169;-66
2022/03/14 03:13:52;;;;;;;15.73;11.00;;;9.50;78.40;;;;;;4947818;28;20047;-70
2022/03/14 03:16:18;;;;;;;17.13;11.10;;;9.50;78.70;;;;;;4921454;28;20082;-70
2022/03/14 03:18:44;;;;;;;14.43;10.02;;;9.50;79.00;;;;;;4924232;29;20054;-65
2022/03/14 03:21:10;;;;;;;13.60;10.23;;;9.50;79.30;;;;;;4922067;28;20553;-69
2022/03/14 03:23:36;;;;;;;14.02;9.75;;;9.50;79.70;;;;;;4914489;29;20081;-69
2022/03/14 03:26:04;;;;;;;13.02;9.75;;;9.50;80.20;;;;;;4921045;28;20058;-69
2022/03/14 03:28:35;;;;;;;11.35;9.27;;;9.50;80.50;;;;;;4946874;28;20819;-69
2022/03/14 03:31:09;;;;;;;12.68;9.90;;;9.50;81.30;;;;;;4952838;28;20057;-64
2022/03/14 03:33:36;;;;;;;11.15;9.45;;;9.50;81.70;;;;;;4933082;28;20397;-70
2022/03/14 03:36:02;;;;;;;13.43;9.23;;;9.50;82.00;;;;;;4955267;28;20250;-68
2022/03/14 03:38:28;;;;;;;12.20;9.02;;;9.50;82.20;;;;;;4939353;28;20054;-68
2022/03/14 03:40:54;;;;;;;14.52;8.63;;;9.50;82.30;;;;;;4923713;28;20082;-64
2022/03/14 03:43:20;;;;;;;10.02;8.32;;;9.50;82.80;;;;;;4936436;28;20182;-70
2022/03/14 03:45:46;;;;;;;10.30;8.60;;;9.50;82.90;;;;;;4905933;28;20062;-69
2022/03/14 03:48:12;;;;;;;12.63;8.18;;;9.50;83.40;;;;;;4938154;28;20642;-70
2022/03/14 03:50:38;;;;;;;9.57;7.68;;;9.50;83.60;;;;;;4930521;28;20601;-66
2022/03/14 03:53:04;;;;;;;10.18;8.07;;;9.50;84.00;;;;;;4938871;28;20401;-69
2022/03/14 03:55:30;;;;;;;11.18;8.57;;;9.60;84.50;;;;;;4932356;28;20047;-69
2022/03/14 03:57:56;;;;;;;12.93;8.07;;;9.60;85.00;;;;;;4937603;28;20078;-67
2022/03/14 04:00:22;;;;;;;11.98;7.85;;;9.60;85.50;;;;;;4906075;28;20050;-68
2022/03/14 04:02:50;;;;;;;8.35;7.15;;;9.60;85.90;;;;;;4927882;28;20070;-66
2022/03/14 04:05:16;;;;;;;9.82;7.50;;;9.60;86.20;;;;;;4923203;28;20561;-69
2022/03/14 04:07:46;;;;;;;10.57;7.20;;;9.60;86.40;;;;;;4925793;28;20047;-70
2022/03/14 04:10:12;;;;;;;8.90;6.70;;;9.60;86.70;;;;;;4940811;28;20497;-67
2022/03/14 04:12:39;;;;;;;9.63;7.10;;;9.70;87.00;;;;;;4929376;29;20634;-70
2022/03/14 04:15:07;;;;;;;9.60;6.88;;;9.70;87.30;;;;;;4928226;28;20087;-69
2022/03/14 04:17:35;;;;;;;9.90;7.22;;;9.70;87.60;;;;;;4938480;28;20517;-69
2022/03/14 04:20:03;;;;;;;8.20;6.65;;;9.70;87.70;;;;;;4924107;28;20054;-69
2022/03/14 04:22:29;;;;;;;10.35;6.75;;;9.70;87.90;;;;;;4936286;28;20447;-69
2022/03/14 04:24:55;;;;;;;9.30;6.20;;;9.70;88.10;;;;;;4929171;28;20066;-69
2022/03/14 04:27:20;;;;;;;10.35;7.32;;;9.70;88.50;;;;;;4937240;28;20089;-68
2022/03/14 04:29:46;;;;;;;9.43;6.63;;;9.70;89.00;;;;;;4923844;28;20330;-69
2022/03/14 04:32:12;;;;;;;9.02;6.40;;;9.70;89.30;;;;;;4933405;28;20051;-70
2022/03/14 04:34:38;;;;;;;7.70;6.35;;;9.70;89.40;;;;;;4922644;28;20156;-69
2022/03/14 04:37:04;;;;;;;7.63;6.20;;;9.70;89.70;;;;;;4921839;28;20513;-70
2022/03/14 04:39:29;;;;;;;10.50;6.25;;;9.70;90.00;;;;;;4938987;28;20074;-66
2022/03/14 04:41:56;;;;;;;7.20;5.53;;;9.70;90.30;;;;;;4921745;28;20133;-66
2022/03/14 04:44:23;;;;;;;6.35;5.35;;;9.70;90.40;;;;;;4938430;28;20047;-70
2022/03/14 04:46:49;;;;;;;6.45;5.18;;;9.70;90.50;;;;;;4951786;28;20494;-69
2022/03/14 04:49:15;;;;;;;7.20;5.20;;;9.70;90.60;;;;;;4922272;28;20080;-65
2022/03/14 04:51:41;;;;;;;5.70;5.10;;;9.70;90.70;;;;;;4930266;28;20062;-70
2022/03/14 04:54:07;;;;;;;5.97;5.00;;;9.70;91.00;;;;;;4938545;28;20086;-69
2022/03/14 04:56:33;;;;;;;6.65;5.25;;;9.70;91.10;;;;;;4937608;28;20051;-65
2022/03/14 04:58:59;;;;;;;5.65;5.05;;;9.70;91.30;;;;;;4938615;28;20055;-67
2022/03/14 05:01:25;;;;;;;6.00;5.03;;;9.70;91.50;;;;;;4918690;28;20257;-70
2022/03/14 05:03:52;;;;;;;5.55;4.93;;;9.70;91.60;;;;;;4937032;28;20058;-69
2022/03/14 05:06:21;;;;;;;6.05;4.97;;;9.70;91.80;;;;;;4937492;28;20055;-69
2022/03/14 05:08:47;;;;;;;5.70;4.72;;;9.70;92.00;;;;;;4924376;29;20059;-65
2022/03/14 05:11:14;;;;;;;6.18;4.82;;;9.60;92.20;;;;;;4937036;28;20042;-70
2022/03/14 05:13:41;;;;;;;9.43;4.72;;;9.60;92.50;;;;;;4935813;28;20059;-67
2022/03/14 05:16:08;;;;;;;6.28;4.78;;;9.60;92.70;;;;;;4920213;28;20055;-69
2022/03/14 05:18:34;;;;;;;7.20;5.10;;;9.60;92.80;;;;;;4935871;28;20055;-69
2022/03/14 05:21:01;;;;;;;4.95;4.40;;;9.60;93.00;;;;;;4901105;29;20058;-67
2022/03/14 05:23:28;;;;;;;5.25;4.40;;;9.60;93.20;;;;;;4937546;28;20050;-69
2022/03/14 05:25:55;;;;;;;7.55;4.90;;;9.60;93.30;;;;;;4938529;28;20047;-69
2022/03/14 05:28:21;;;;;;;5.90;4.18;;;9.60;93.60;;;;;;4951355;28;20329;-69
2022/03/14 05:30:47;;;;;;;5.32;4.45;;;9.70;93.70;;;;;;4937783;28;20129;-70
2022/03/14 05:33:13;;;;;;;5.75;4.40;;;9.60;93.90;;;;;;4919273;28;20063;-66
2022/03/14 05:35:39;;;;;;;7.03;4.10;;;9.60;94.10;;;;;;4925116;28;20043;-69
2022/03/14 05:38:05;;;;;;;4.88;4.18;;;9.70;94.30;;;;;;4933097;28;20056;-69
2022/03/14 05:40:31;;;;;;;8.30;4.20;;;9.70;94.40;;;;;;4948387;28;20089;-68
2022/03/14 05:42:57;;;;;;;6.15;3.85;;;9.70;94.60;;;;;;4929558;29;20492;-69
2022/03/14 05:45:23;;;;;;;10.50;3.90;;;9.70;94.90;;;;;;4940507;28;20119;-68
2022/03/14 05:47:49;;;;;;;6.40;4.30;;;9.70;95.10;;;;;;4939182;28;20122;-70
2022/03/14 05:50:16;;;;;;;4.60;3.95;;;9.70;95.30;;;;;;4940602;28;20050;-70
2022/03/14 05:52:42;;;;;;;7.82;4.35;;;9.70;95.70;;;;;;4940014;28;20050;-67
2022/03/14 05:55:08;;;;;;;8.25;3.97;;;9.70;96.10;;;;;;4940603;28;20051;-68
2022/03/14 05:57:35;;;;;;;5.25;4.20;;;9.70;96.50;;;;;;4940921;28;20130;-69
2022/03/14 06:00:05;;;;;;;6.60;4.32;;;9.70;96.90;;;;;;4925767;28;20058;-69
2022/03/14 06:02:36;;;;;;;5.22;4.47;;;9.60;97.10;;;;;;4924673;28;20090;-70
2022/03/14 06:05:02;;;;;;;7.35;4.40;;;9.60;97.60;;;;;;4941220;28;20060;-67
2022/03/14 06:07:27;;;;;;;4.78;4.10;;;9.60;98.20;;;;;;4938321;28;20070;-69
2022/03/14 06:09:53;;;;;;;5.07;4.55;;;9.60;98.30;;;;;;4932516;28;20521;-67
2022/03/14 06:12:27;;;;;;;4.80;4.30;;;9.60;98.80;;;;;;4938536;28;20458;-69
2022/03/14 06:14:57;;;;;;;5.05;4.55;;;9.60;99.50;;;;;;4941917;28;20118;-66
2022/03/14 06:17:23;;;;;;;4.43;4.03;;;9.60;99.70;;;;;;4928337;29;20048;-69
2022/03/14 06:19:49;;;;;;;6.93;4.70;;;9.60;99.90;;;;;;4940000;28;20051;-69
2022/03/14 06:22:20;;;;;;;4.25;3.85;;;9.60;99.90;;;;;;4937095;28;20498;-69
2022/03/14 06:24:48;;;;;;;6.57;4.32;;;9.60;99.90;;;;;;4936847;28;20062;-67
2022/03/14 06:27:19;;;;;;;5.28;4.55;;;9.60;99.90;;;;;;4923664;28;20498;-65
2022/03/14 06:29:45;;;;;;;4.72;4.13;;;9.50;99.90;;;;;;4938696;28;20920;-67
2022/03/14 06:32:11;;;;;;;5.43;4.13;;;9.50;99.90;;;;;;4936915;28;20090;-69
2022/03/14 06:34:38;;;;;;;4.95;4.13;;;9.60;99.90;;;;;;4947076;28;20039;-65
2022/03/14 06:37:07;;;;;;;4.70;4.20;;;9.50;99.90;;;;;;4920426;28;20051;-67
2022/03/14 06:39:35;;;;;;;5.43;4.30;;;9.50;99.90;;;;;;4937384;28;20549;-69
2022/03/14 06:42:09;;;;;;;5.53;4.53;;;9.50;99.90;;;;;;4936513;28;20079;-66
2022/03/14 06:44:39;;;;;;;5.13;4.28;;;9.50;99.90;;;;;;4916586;29;20138;-65
2022/03/14 06:47:10;;;;;;;8.23;4.35;;;9.50;99.90;;;;;;4926392;28;20047;-68
2022/03/14 06:49:37;;;;;;;4.85;4.32;;;9.50;99.90;;;;;;4940181;28;20050;-68
2022/03/14 06:52:07;;;;;;;4.90;4.32;;;9.50;99.90;;;;;;4935561;28;20536;-66
2022/03/14 06:54:33;;;;;;;4.65;4.10;;;9.50;99.90;;;;;;4926325;28;20870;-67
2022/03/14 06:56:59;;;;;;;4.93;4.15;;;9.50;99.90;;;;;;4942006;28;20130;-68
2022/03/14 06:59:25;;;;;;;4.63;4.10;;;9.50;99.90;;;;;;4950476;28;20039;-68
2022/03/14 07:01:51;;;;;;;4.97;4.18;;;9.50;99.90;;;;;;4938886;28;20557;-68
2022/03/14 07:04:17;;;;;;;4.72;4.22;;;9.50;99.90;;;;;;4939045;28;20153;-69
2022/03/14 07:06:43;;;;;;;5.18;4.45;;;9.50;99.90;;;;;;4938550;28;20647;-67
2022/03/14 07:09:09;;;;;;;5.10;4.53;;;9.60;99.90;;;;;;4924524;28;20489;-69
2022/03/14 07:11:35;;;;;;;6.45;4.82;;;9.60;99.90;;;;;;4921226;28;20074;-65
2022/03/14 07:14:01;;;;;;;6.75;4.70;;;9.60;99.90;;;;;;4938889;28;20090;-67
2022/03/14 07:16:27;;;;;;;4.75;4.28;;;9.60;99.90;;;;;;4919498;28;20063;-70
2022/03/14 07:18:53;;;;;;;5.00;4.50;;;9.60;99.90;;;;;;4922281;29;20043;-70
2022/03/14 07:21:19;;;;;;;5.15;4.55;;;9.60;99.90;;;;;;4908733;28;20051;-68
2022/03/14 07:23:45;;;;;;;5.68;4.57;;;9.60;99.90;;;;;;4925836;29;20093;-68
2022/03/14 07:26:11;;;;;;;7.00;5.00;;;9.60;99.90;;;;;;4914487;29;20121;-68
2022/03/14 07:28:38;;;;;;;6.13;4.93;;;9.60;99.90;;;;;;4941474;28;20054;-69
2022/03/14 07:31:05;;;;;;;5.88;4.72;;;9.60;99.90;;;;;;4924481;28;20105;-66
2022/03/14 07:33:31;;;;;;;6.68;5.18;;;9.60;99.90;;;;;;4948118;28;20162;-67
2022/03/14 07:35:57;;;;;;;8.50;5.05;;;9.60;99.90;;;;;;4909347;29;20500;-69
2022/03/14 07:38:23;;;;;;;5.05;4.55;;;9.60;99.90;;;;;;4940499;28;20047;-68
2022/03/14 07:40:49;;;;;;;7.70;5.28;;;9.60;99.90;;;;;;4926064;29;20046;-68
2022/03/14 07:43:16;;;;;;;5.38;4.60;;;9.60;99.90;;;;;;4932509;28;20051;-68
2022/03/14 07:45:42;;;;;;;6.57;5.10;;;9.60;99.90;;;;;;4921416;29;20066;-68
2022/03/14 07:48:08;;;;;;;5.70;4.80;;;9.60;99.90;;;;;;4934698;29;20102;-69
2022/03/14 07:50:33;;;;;;;6.50;5.00;;;9.60;99.90;;;;;;4940643;29;20062;-69
2022/03/14 07:52:59;;;;;;;6.85;5.45;;;9.60;99.90;;;;;;4939350;28;20438;-69
2022/03/14 07:55:25;;;;;;;6.07;5.47;;;9.60;99.90;;;;;;4931659;29;20149;-70
2022/03/14 07:57:51;;;;;;;7.45;5.30;;;9.60;99.90;;;;;;4941292;28;20046;-68
2022/03/14 08:00:18;;;;;;;7.13;5.57;;;9.60;99.90;;;;;;4939934;28;20134;-68
2022/03/14 08:02:45;;;;;;;8.25;5.30;;;9.70;99.90;;;;;;4937829;28;20051;-68
2022/03/14 08:05:16;;;;;;;7.03;5.63;;;9.60;99.90;;;;;;4925702;29;20716;-68
2022/03/14 08:07:46;;;;;;;6.38;5.35;;;9.60;99.90;;;;;;4924196;29;20134;-68
2022/03/14 08:10:15;;;;;;;8.23;6.05;;;9.60;99.90;;;;;;4940013;28;20077;-68
2022/03/14 08:12:46;;;;;;;8.00;6.07;;;9.70;99.90;;;;;;4924534;29;20427;-68
2022/03/14 08:15:25;;;;;;;8.35;5.40;;;9.70;99.90;;;;;;4932993;29;20055;-68
2022/03/14 08:17:52;;;;;;;9.27;5.63;;;9.70;99.90;;;;;;4908126;29;20047;-68
2022/03/14 08:20:19;;;;;;;6.40;5.30;;;9.70;99.90;;;;;;4926233;29;20051;-69
2022/03/14 08:22:45;;;;;;;8.00;5.57;;;9.70;99.90;;;;;;4956017;28;20047;-68
2022/03/14 08:25:11;;;;;;;7.20;5.70;;;9.80;99.90;;;;;;4942113;28;20126;-68
2022/03/14 08:27:38;;;;;;;7.05;5.60;;;9.80;99.90;;;;;;4941119;28;20083;-68
2022/03/14 08:30:05;;;;;;;6.68;5.65;;;9.80;99.90;;;;;;4924854;28;20053;-68
2022/03/14 08:32:34;;;;;;;7.03;5.57;;;9.80;99.90;;;;;;4908074;29;20066;-68
2022/03/14 08:35:07;;;;;;;7.82;5.75;;;9.80;99.90;;;;;;4949187;28;20489;-68
2022/03/14 08:37:37;;;;;;;;;;;9.80;99.90;;;;;;4939622;28;20138;-68
2022/03/14 08:40:05;;;;;;;6.82;5.90;;;9.80;99.90;;;;;;4940141;28;19926;-68
2022/03/14 08:42:31;;;;;;;7.47;5.47;;;9.80;99.90;;;;;;4921147;29;20043;-69
2022/03/14 08:44:57;;;;;;;7.97;5.97;;;9.80;99.90;;;;;;4912818;29;20059;-69
2022/03/14 08:47:24;;;;;;;6.25;5.65;;;9.80;99.90;;;;;;4928261;29;20039;-66
2022/03/14 08:49:50;;;;;;;7.75;5.97;;;9.80;99.90;;;;;;4931461;28;20117;-68
2022/03/14 08:52:16;;;;;;;6.35;5.75;;;9.90;99.90;;;;;;4938738;28;20039;-69
2022/03/14 08:54:42;;;;;;;6.90;6.10;;;9.90;99.90;;;;;;4940321;28;20122;-68
2022/03/14 08:57:08;;;;;;;7.03;6.32;;;9.90;99.90;;;;;;4921992;28;20064;-69
2022/03/14 08:59:34;;;;;;;7.25;6.18;;;9.90;99.90;;;;;;4925111;29;20043;-68
2022/03/14 09:02:00;;;;;;;7.10;6.20;;;9.90;99.90;;;;;;4954715;28;20451;-69
2022/03/14 09:04:25;;;;;;;8.93;6.30;;;9.90;99.90;;;;;;4925523;29;20043;-67
2022/03/14 09:06:51;;;;;;;7.75;6.15;;;9.90;99.90;;;;;;4924459;29;20110;-69
2022/03/14 09:09:18;;;;;;;7.28;6.03;;;9.90;99.90;;;;;;4942239;28;20047;-67
2022/03/14 09:11:45;;;;;;;7.28;5.90;;;9.90;99.90;;;;;;4943294;28;20461;-69
2022/03/14 09:14:11;;;;;;;8.18;6.53;;;9.90;99.90;;;;;;4944324;28;20077;-69
2022/03/14 09:16:37;;;;;;;7.03;6.28;;;9.90;99.90;;;;;;4911122;28;20506;-67
2022/03/14 09:19:03;;;;;;;6.82;6.03;;;9.90;99.90;;;;;;4933920;29;20058;-70
2022/03/14 09:21:30;;;;;;;9.85;6.82;;;9.90;99.90;;;;;;4943842;28;20043;-69
2022/03/14 09:23:56;;;;;;;7.63;6.38;;;9.90;99.90;;;;;;4943965;28;20159;-69
2022/03/14 09:26:22;;;;;;;7.00;6.30;;;10.00;99.90;;;;;;4933161;28;20055;-68
2022/03/14 09:28:49;;;;;;;8.05;6.93;;;10.00;99.90;;;;;;4934319;28;20397;-69
2022/03/14 09:31:16;;;;;;;8.30;7.00;;;10.00;99.90;;;;;;4911498;28;20062;-68
2022/03/14 09:33:42;;;;;;;8.00;6.70;;;10.00;99.90;;;;;;4928730;29;20449;-68
2022/03/14 09:36:08;;;;;;;8.13;6.72;;;10.00;99.90;;;;;;4943338;28;20059;-69
2022/03/14 09:38:34;;;;;;;10.23;6.90;;;10.00;99.90;;;;;;4927661;29;21193;-67
2022/03/14 09:41:02;;;;;;;7.85;6.90;;;10.00;99.90;;;;;;4943158;28;20203;-67
2022/03/14 09:43:30;;;;;;;8.15;6.90;;;9.90;99.90;;;;;;4926615;29;20501;-69
2022/03/14 09:45:56;;;;;;;8.85;7.30;;;9.90;99.90;;;;;;4958694;28;20118;-69
2022/03/14 09:48:23;;;;;;;9.63;7.88;;;9.90;99.90;;;;;;4942746;28;20134;-69
2022/03/14 09:50:49;;;;;;;9.20;7.57;;;9.90;99.90;;;;;;4943543;28;20047;-66
2022/03/14 09:53:17;;;;;;;8.10;7.30;;;10.00;99.90;;;;;;4942776;28;20053;-69
2022/03/14 09:55:46;;;;;;;8.50;7.50;;;10.00;99.90;;;;;;4942735;29;20538;-69
2022/03/14 09:58:17;;;;;;;10.05;8.13;;;10.00;99.90;;;;;;4943004;28;20047;-66
2022/03/14 10:00:43;;;;;;;11.15;8.02;;;10.00;99.90;;;;;;4945110;29;20066;-69
2022/03/14 10:03:10;;;;;;;12.85;8.27;;;10.00;99.90;;;;;;4941586;28;20046;-67
2022/03/14 10:05:36;;;;;;;10.35;8.95;;;10.00;99.90;;;;;;4942913;28;20735;-67
2022/03/14 10:08:02;;;;;;;13.27;8.85;;;9.90;99.90;;;;;;4943270;28;20051;-68
2022/03/14 10:10:28;;;;;;;19.83;14.68;;;9.90;99.90;;;;;;4934156;28;20078;-68
2022/03/14 10:12:57;;;;;;;22.27;17.17;;;9.90;99.90;;;;;;4942476;28;20062;-68
2022/03/14 10:15:31;;;;;;;26.30;19.23;;;9.90;99.90;;;;;;4943453;28;20075;-67
2022/03/14 10:17:57;;;;;;;29.08;19.75;;;9.90;99.90;;;;;;4926338;29;20054;-67
2022/03/14 10:20:25;;;;;;;25.38;17.63;;;9.80;99.90;;;;;;4942195;28;20485;-68
2022/03/14 10:22:52;;;;;;;22.25;16.25;;;9.80;99.90;;;;;;4903891;29;20051;-67
2022/03/14 10:25:20;;;;;;;23.58;15.75;;;9.70;99.90;;;;;;4942816;28;20051;-67
2022/03/14 10:27:57;;;;;;;22.63;15.45;;;9.70;99.90;;;;;;4925368;29;20134;-66
2022/03/14 10:30:33;;;;;;;26.92;14.82;;;9.70;99.90;;;;;;4942607;28;20043;-67
2022/03/14 10:33:12;;;;;;;20.60;14.35;;;9.80;99.90;;;;;;4957443;28;20058;-68
2022/03/14 10:35:43;;;;;;;19.98;12.98;;;9.80;99.90;;;;;;4926929;28;20413;-67
2022/03/14 10:38:12;;;;;;;18.33;12.38;;;9.80;99.90;;;;;;4942860;28;20043;-68
2022/03/14 10:40:40;;;;;;;20.15;12.77;;;9.80;99.90;;;;;;4941706;28;20522;-66
2022/03/14 10:43:08;;;;;;;19.02;12.15;;;9.80;99.90;;;;;;4941587;28;20054;-67
2022/03/14 10:45:37;;;;;;;22.48;12.07;;;9.80;99.90;;;;;;4926366;29;20510;-67
2022/03/14 10:48:04;;;;;;;17.23;11.18;;;9.80;99.90;;;;;;4924731;29;20090;-66
2022/03/14 10:50:30;;;;;;;18.90;10.35;;;9.80;99.90;;;;;;4942514;28;20093;-66
2022/03/14 10:53:17;;;;;;;21.13;11.07;;;9.90;99.90;;;;;;4939936;28;20134;-67
2022/03/14 10:55:48;;;;;;;21.42;9.98;;;9.90;99.90;;;;;;4917389;29;20054;-68
2022/03/14 10:58:19;;;;;;;21.48;10.27;;;9.90;99.90;;;;;;4939894;28;20049;-66
2022/03/14 11:00:55;;;;;;;18.42;10.43;;;9.90;99.90;;;;;;4940741;28;20133;-67
2022/03/14 11:03:32;;;;;;;20.95;10.23;;;9.90;99.90;;;;;;4939843;28;20047;-66
2022/03/14 11:06:01;;;;;;;19.48;10.23;;;10.00;99.90;;;;;;4942045;28;20430;-67
2022/03/14 11:08:39;;;;;;;18.25;8.63;;;10.00;99.90;;;;;;4941246;28;20199;-67
2022/03/14 11:11:06;;;;;;;15.88;8.57;;;10.00;99.90;;;;;;4942350;28;20054;-67
2022/03/14 11:13:37;;;;;;;22.42;9.40;;;10.00;99.90;;;;;;4925543;29;20190;-66
2022/03/14 11:16:03;;;;;;;22.13;8.77;;;10.00;99.90;;;;;;4941568;28;20054;-67
2022/03/14 11:18:29;;;;;;;20.42;9.07;;;10.00;99.90;;;;;;4942082;28;20047;-68
2022/03/14 11:20:59;;;;;;;20.38;9.02;;;10.00;99.90;;;;;;4942349;28;20058;-66
2022/03/14 11:23:25;;;;;;;19.73;8.73;;;10.00;99.90;;;;;;4924991;29;20047;-68
2022/03/14 11:25:52;;;;;;;21.52;9.50;;;10.00;99.90;;;;;;4941319;28;20080;-67
2022/03/14 11:28:22;;;;;;;19.65;9.68;;;10.00;99.90;;;;;;4909531;28;20066;-66
2022/03/14 11:30:54;;;;;;;24.25;9.27;;;10.00;99.90;;;;;;4941472;28;20059;-67
2022/03/14 11:33:20;;;;;;;15.77;8.87;;;10.00;99.90;;;;;;4940414;28;20517;-67
2022/03/14 11:35:46;;;;;;;18.70;8.98;;;10.10;99.90;;;;;;4900615;29;20304;-69
2022/03/14 11:38:13;;;;;;;22.10;9.68;;;10.10;99.90;;;;;;4940155;28;20043;-67
2022/03/14 11:40:40;;;;;;;22.45;9.35;;;10.10;99.90;;;;;;4949812;28;20047;-67
2022/03/14 11:43:06;;;;;;;19.77;9.13;;;10.10;99.90;;;;;;4939537;28;20058;-66
2022/03/14 11:45:34;;;;;;;21.08;9.60;;;10.10;99.90;;;;;;4956449;28;20074;-68
2022/03/14 11:48:00;;;;;;;19.80;9.20;;;10.20;99.90;;;;;;4908905;29;20055;-68
2022/03/14 11:50:26;;;;;;;18.83;8.75;;;10.20;99.90;;;;;;4925106;28;20050;-68
2022/03/14 11:52:52;;;;;;;15.27;8.05;;;10.20;99.90;;;;;;4940524;28;20513;-67
2022/03/14 11:55:24;;;;;;;17.92;9.13;;;10.20;99.90;;;;;;4941376;28;20066;-67
2022/03/14 11:57:51;;;;;;;16.70;8.48;;;10.20;99.90;;;;;;4933536;28;20047;-68
2022/03/14 12:00:27;;;;;;;18.83;8.95;;;10.20;99.90;;;;;;4941114;28;20450;-67
2022/03/14 12:02:56;;;;;;;18.67;7.97;;;10.20;99.90;;;;;;4939922;28;20043;-68
2022/03/14 12:05:31;;;;;;;17.73;7.97;;;10.20;99.90;;;;;;4940445;28;20138;-68
2022/03/14 12:07:57;;;;;;;17.55;8.82;;;10.20;99.90;;;;;;4956107;28;20153;-68
2022/03/14 12:10:32;;;;;;;19.38;9.05;;;10.20;99.90;;;;;;4940895;28;20086;-67
2022/03/14 12:13:01;;;;;;;17.73;9.10;;;10.20;99.90;;;;;;4940421;28;20055;-67
2022/03/14 12:15:37;;;;;;;16.50;8.50;;;10.20;99.90;;;;;;4939456;28;20051;-67
2022/03/14 12:18:28;;;;;;;22.55;8.70;;;10.20;99.90;;;;;;4940323;28;20134;-66
2022/03/14 12:20:59;;;;;;;16.80;8.45;;;10.30;99.90;;;;;;4924083;29;20101;-66
2022/03/14 12:23:30;;;;;;;15.90;8.95;;;10.20;99.90;;;;;;4934143;28;20054;-68
2022/03/14 12:25:58;;;;;;;18.73;10.45;;;10.30;99.90;;;;;;4924789;29;20051;-67
2022/03/14 12:28:35;;;;;;;20.92;10.23;;;10.20;99.90;;;;;;4914724;28;20050;-68
2022/03/14 12:31:04;;;;;;;24.63;11.27;;;10.20;99.90;;;;;;4940535;28;20113;-69
2022/03/14 12:33:35;;;;;;;23.40;11.40;;;10.20;99.90;;;;;;4938958;28;20087;-66
2022/03/14 12:36:19;;;;;;;22.38;11.65;;;10.30;99.90;;;;;;4925230;29;20704;-67
2022/03/14 12:39:08;;;;;;;24.23;11.85;;;10.30;99.90;;;;;;4939564;28;20051;-68
2022/03/14 12:41:44;;;;;;;28.67;12.63;;;10.30;99.90;;;;;;4939913;28;20050;-68
2022/03/14 12:44:20;;;;;;;30.08;13.40;;;10.40;99.90;;;;;;4928075;29;20094;-68
2022/03/14 12:46:47;;;;;;;27.45;12.60;;;10.50;99.90;;;;;;4943178;28;20051;-67